sensor_id;sensor_type;location;lat;lon;timestamp;temperature;humidity
2893;DHT22;1456;51.840;12.184;2023-03-23T00:01:11;10.90;99.90
2893;DHT22;1456;51.840;12.184;2023-03-23T00:03:40;10.90;99.90
2893;DHT22;1456;51.840;12.184;2023-03-23T00:06:07;10.90;99.90
2893;DHT22;1456;51.840;12.184;2023-03-23T00:08:34;10.90;99.90
2893;DHT22;1456;51.840;12.184;2023-03-23T00:11:06;11.00;99.90
2893;DHT22;1456;51.840;12.184;2023-03-23T00:13:32;11.00;99.90
2893;DHT22;1456;51.840;12.184;2023-03-23T00:15:58;11.10;99.90
2893;DHT22;1456;51.840;12.184;2023-03-23T00:18:23;11.10;99.90
2893;DHT22;1456;51.840;12.184;2023-03-23T00:20:51;11.20;99.90
2893;DHT22;1456;51.840;12.184;2023-03-23T00:23:17;11.20;99.90
2893;DHT22;1456;51.840;12.184;2023-03-23T00:25:46;11.30;99.90
2893;DHT22;1456;51.840;12.184;2023-03-23T00:28:12;11.30;99.90
2893;DHT22;1456;51.840;12.184;2023-03-23T00:30:39;11.30;99.90
2893;DHT22;1456;51.840;12.184;2023-03-23T00:33:04;11.40;99.90
2893;DHT22;1456;51.840;12.184;2023-03-23T00:35:30;11.50;99.90
2893;DHT22;1456;51.840;12.184;2023-03-23T00:37:56;11.50;99.90
2893;DHT22;1456;51.840;12.184;2023-03-23T00:40:24;11.60;99.90
2893;DHT22;1456;51.840;12.184;2023-03-23T00:42:53;11.70;99.90
2893;DHT22;1456;51.840;12.184;2023-03-23T00:45:19;11.80;99.90
2893;DHT22;1456;51.840;12.184;2023-03-23T00:47:44;11.80;99.90
2893;DHT22;1456;51.840;12.184;2023-03-23T00:50:16;11.90;99.90
2893;DHT22;1456;51.840;12.184;2023-03-23T00:52:43;11.90;99.90
2893;DHT22;1456;51.840;12.184;2023-03-23T00:55:08;11.90;99.90
2893;DHT22;1456;51.840;12.184;2023-03-23T00:57:34;12.00;99.90
2893;DHT22;1456;51.840;12.184;2023-03-23T01:02:34;12.20;99.90
2893;DHT22;1456;51.840;12.184;2023-03-23T01:05:02;12.30;99.90
2893;DHT22;1456;51.840;12.184;2023-03-23T01:07:29;12.40;99.90
2893;DHT22;1456;51.840;12.184;2023-03-23T01:09:56;12.50;99.90
2893;DHT22;1456;51.840;12.184;2023-03-23T01:12:23;12.50;99.90
2893;DHT22;1456;51.840;12.184;2023-03-23T01:14:50;12.50;99.90
2893;DHT22;1456;51.840;12.184;2023-03-23T01:17:17;12.50;99.90
2893;DHT22;1456;51.840;12.184;2023-03-23T01:19:44;12.40;99.90
2893;DHT22;1456;51.840;12.184;2023-03-23T01:22:09;12.40;99.90
2893;DHT22;1456;51.840;12.184;2023-03-23T01:24:35;12.30;99.90
2893;DHT22;1456;51.840;12.184;2023-03-23T01:27:01;12.20;99.90
2893;DHT22;1456;51.840;12.184;2023-03-23T01:29:34;12.20;99.90
2893;DHT22;1456;51.840;12.184;2023-03-23T01:32:02;12.30;99.90
2893;DHT22;1456;51.840;12.184;2023-03-23T01:34:28;12.30;99.90
2893;DHT22;1456;51.840;12.184;2023-03-23T01:36:53;12.30;99.90
2893;DHT22;1456;51.840;12.184;2023-03-23T01:39:19;12.40;99.90
2893;DHT22;1456;51.840;12.184;2023-03-23T01:41:45;12.50;99.90
2893;DHT22;1456;51.840;12.184;2023-03-23T01:46:44;12.80;99.90
2893;DHT22;1456;51.840;12.184;2023-03-23T01:51:36;12.90;99.90
2893;DHT22;1456;51.840;12.184;2023-03-23T01:54:04;13.00;99.90
2893;DHT22;1456;51.840;12.184;2023-03-23T01:56:32;13.00;99.90
2893;DHT22;1456;51.840;12.184;2023-03-23T01:59:03;12.90;99.90
2893;DHT22;1456;51.840;12.184;2023-03-23T02:01:30;13.00;99.90
2893;DHT22;1456;51.840;12.184;2023-03-23T02:03:57;13.00;99.90
2893;DHT22;1456;51.840;12.184;2023-03-23T02:06:24;13.00;99.90
2893;DHT22;1456;51.840;12.184;2023-03-23T02:08:51;12.90;99.90
2893;DHT22;1456;51.840;12.184;2023-03-23T02:11:18;13.00;99.90
2893;DHT22;1456;51.840;12.184;2023-03-23T02:13:44;13.00;99.90
2893;DHT22;1456;51.840;12.184;2023-03-23T02:21:48;13.00;99.90
2893;DHT22;1456;51.840;12.184;2023-03-23T02:29:44;13.00;99.90
2893;DHT22;1456;51.840;12.184;2023-03-23T02:32:16;13.00;99.90
2893;DHT22;1456;51.840;12.184;2023-03-23T02:34:56;13.00;99.90
2893;DHT22;1456;51.840;12.184;2023-03-23T02:37:31;12.90;99.90
2893;DHT22;1456;51.840;12.184;2023-03-23T02:39:58;12.90;99.90
2893;DHT22;1456;51.840;12.184;2023-03-23T02:42:34;12.90;99.90
2893;DHT22;1456;51.840;12.184;2023-03-23T02:45:05;12.90;99.90
2893;DHT22;1456;51.840;12.184;2023-03-23T02:47:34;12.80;99.90
2893;DHT22;1456;51.840;12.184;2023-03-23T02:50:01;12.90;99.60
2893;DHT22;1456;51.840;12.184;2023-03-23T02:52:27;13.00;99.30
2893;DHT22;1456;51.840;12.184;2023-03-23T02:54:55;13.00;99.20
2893;DHT22;1456;51.840;12.184;2023-03-23T02:57:22;13.10;98.90
2893;DHT22;1456;51.840;12.184;2023-03-23T02:59:51;13.20;99.20
2893;DHT22;1456;51.840;12.184;2023-03-23T03:04:42;13.30;98.90
2893;DHT22;1456;51.840;12.184;2023-03-23T03:09:49;13.30;98.80
2893;DHT22;1456;51.840;12.184;2023-03-23T03:12:36;13.30;98.70
2893;DHT22;1456;51.840;12.184;2023-03-23T03:17:33;13.30;98.80
2893;DHT22;1456;51.840;12.184;2023-03-23T03:20:05;13.30;98.60
2893;DHT22;1456;51.840;12.184;2023-03-23T03:22:35;13.30;98.40
2893;DHT22;1456;51.840;12.184;2023-03-23T03:25:04;13.20;98.70
2893;DHT22;1456;51.840;12.184;2023-03-23T03:27:31;13.20;98.50
2893;DHT22;1456;51.840;12.184;2023-03-23T03:29:58;13.20;98.60
2893;DHT22;1456;51.840;12.184;2023-03-23T03:32:26;13.20;98.50
2893;DHT22;1456;51.840;12.184;2023-03-23T03:35:00;13.10;98.70
2893;DHT22;1456;51.840;12.184;2023-03-23T03:37:26;13.10;98.90
2893;DHT22;1456;51.840;12.184;2023-03-23T03:39:51;13.00;98.90
2893;DHT22;1456;51.840;12.184;2023-03-23T03:42:17;13.00;98.90
2893;DHT22;1456;51.840;12.184;2023-03-23T03:44:43;13.00;98.80
2893;DHT22;1456;51.840;12.184;2023-03-23T03:47:08;13.00;98.90
2893;DHT22;1456;51.840;12.184;2023-03-23T03:49:34;12.90;99.10
2893;DHT22;1456;51.840;12.184;2023-03-23T03:52:00;12.90;99.10
2893;DHT22;1456;51.840;12.184;2023-03-23T03:54:26;12.90;99.10
2893;DHT22;1456;51.840;12.184;2023-03-23T03:56:52;12.90;99.30
2893;DHT22;1456;51.840;12.184;2023-03-23T03:59:24;12.80;99.30
2893;DHT22;1456;51.840;12.184;2023-03-23T04:01:51;12.90;99.40
2893;DHT22;1456;51.840;12.184;2023-03-23T04:04:19;12.90;99.20
2893;DHT22;1456;51.840;12.184;2023-03-23T04:06:45;12.90;99.20
2893;DHT22;1456;51.840;12.184;2023-03-23T04:09:10;12.90;99.20
2893;DHT22;1456;51.840;12.184;2023-03-23T04:11:37;13.00;99.10
2893;DHT22;1456;51.840;12.184;2023-03-23T04:14:02;13.00;99.20
2893;DHT22;1456;51.840;12.184;2023-03-23T04:16:29;13.10;99.20
2893;DHT22;1456;51.840;12.184;2023-03-23T04:18:55;13.10;99.60
2893;DHT22;1456;51.840;12.184;2023-03-23T04:21:23;13.00;99.90
2893;DHT22;1456;51.840;12.184;2023-03-23T04:23:49;12.70;99.90
2893;DHT22;1456;51.840;12.184;2023-03-23T04:26:14;12.50;99.90
2893;DHT22;1456;51.840;12.184;2023-03-23T04:28:43;12.30;99.90
2893;DHT22;1456;51.840;12.184;2023-03-23T04:31:08;12.10;99.90
2893;DHT22;1456;51.840;12.184;2023-03-23T04:33:35;12.00;99.90
2893;DHT22;1456;51.840;12.184;2023-03-23T04:36:03;11.90;99.90
2893;DHT22;1456;51.840;12.184;2023-03-23T04:38:31;11.80;99.90
2893;DHT22;1456;51.840;12.184;2023-03-23T04:40:58;11.80;99.90
2893;DHT22;1456;51.840;12.184;2023-03-23T04:43:28;11.70;99.90
2893;DHT22;1456;51.840;12.184;2023-03-23T04:45:54;11.70;99.90
2893;DHT22;1456;51.840;12.184;2023-03-23T04:48:25;11.70;99.90
2893;DHT22;1456;51.840;12.184;2023-03-23T04:50:51;11.60;99.90
2893;DHT22;1456;51.840;12.184;2023-03-23T04:53:18;11.60;99.90
2893;DHT22;1456;51.840;12.184;2023-03-23T04:55:46;11.50;99.90
2893;DHT22;1456;51.840;12.184;2023-03-23T04:58:18;11.50;99.90
2893;DHT22;1456;51.840;12.184;2023-03-23T05:00:44;11.50;99.90
2893;DHT22;1456;51.840;12.184;2023-03-23T05:03:20;11.60;99.90
2893;DHT22;1456;51.840;12.184;2023-03-23T05:05:45;11.60;99.90
2893;DHT22;1456;51.840;12.184;2023-03-23T05:08:26;11.60;99.90
2893;DHT22;1456;51.840;12.184;2023-03-23T05:10:57;11.60;99.90
2893;DHT22;1456;51.840;12.184;2023-03-23T05:13:24;11.50;99.90
2893;DHT22;1456;51.840;12.184;2023-03-23T05:15:50;11.50;99.90
2893;DHT22;1456;51.840;12.184;2023-03-23T05:18:18;11.50;99.90
2893;DHT22;1456;51.840;12.184;2023-03-23T05:20:45;11.50;99.90
2893;DHT22;1456;51.840;12.184;2023-03-23T05:23:25;11.50;99.90
2893;DHT22;1456;51.840;12.184;2023-03-23T05:25:56;11.50;99.90
2893;DHT22;1456;51.840;12.184;2023-03-23T05:28:29;11.60;99.90
2893;DHT22;1456;51.840;12.184;2023-03-23T05:30:56;11.60;99.90
2893;DHT22;1456;51.840;12.184;2023-03-23T05:33:24;11.70;99.90
2893;DHT22;1456;51.840;12.184;2023-03-23T05:35:50;11.60;99.90
2893;DHT22;1456;51.840;12.184;2023-03-23T05:38:18;11.60;99.90
2893;DHT22;1456;51.840;12.184;2023-03-23T05:40:43;11.60;99.90
2893;DHT22;1456;51.840;12.184;2023-03-23T05:43:09;11.60;99.90
2893;DHT22;1456;51.840;12.184;2023-03-23T05:45:35;11.60;99.90
2893;DHT22;1456;51.840;12.184;2023-03-23T05:48:02;11.60;99.90
2893;DHT22;1456;51.840;12.184;2023-03-23T05:50:28;11.60;99.90
2893;DHT22;1456;51.840;12.184;2023-03-23T05:52:54;11.60;99.90
2893;DHT22;1456;51.840;12.184;2023-03-23T05:57:49;11.60;99.90
2893;DHT22;1456;51.840;12.184;2023-03-23T06:00:15;11.50;99.90
2893;DHT22;1456;51.840;12.184;2023-03-23T06:02:45;11.50;99.90
2893;DHT22;1456;51.840;12.184;2023-03-23T06:05:10;11.30;99.90
2893;DHT22;1456;51.840;12.184;2023-03-23T06:07:36;11.10;99.90
2893;DHT22;1456;51.840;12.184;2023-03-23T06:10:04;11.10;99.90
2893;DHT22;1456;51.840;12.184;2023-03-23T06:12:31;11.10;99.90
2893;DHT22;1456;51.840;12.184;2023-03-23T06:14:58;11.10;99.90
2893;DHT22;1456;51.840;12.184;2023-03-23T06:17:24;11.20;99.90
2893;DHT22;1456;51.840;12.184;2023-03-23T06:19:49;11.20;99.90
2893;DHT22;1456;51.840;12.184;2023-03-23T06:22:16;11.30;99.90
2893;DHT22;1456;51.840;12.184;2023-03-23T06:24:42;11.30;99.90
2893;DHT22;1456;51.840;12.184;2023-03-23T06:27:07;11.30;99.90
2893;DHT22;1456;51.840;12.184;2023-03-23T06:29:34;11.30;99.90
2893;DHT22;1456;51.840;12.184;2023-03-23T06:32:00;11.30;99.90
2893;DHT22;1456;51.840;12.184;2023-03-23T06:34:27;11.30;99.90
2893;DHT22;1456;51.840;12.184;2023-03-23T06:36:53;11.30;99.90
2893;DHT22;1456;51.840;12.184;2023-03-23T06:39:20;11.40;99.90
2893;DHT22;1456;51.840;12.184;2023-03-23T06:41:48;11.40;99.90
2893;DHT22;1456;51.840;12.184;2023-03-23T06:44:14;11.30;99.90
2893;DHT22;1456;51.840;12.184;2023-03-23T06:46:40;11.30;99.90
2893;DHT22;1456;51.840;12.184;2023-03-23T06:49:06;11.20;99.90
2893;DHT22;1456;51.840;12.184;2023-03-23T06:51:32;11.10;99.90
2893;DHT22;1456;51.840;12.184;2023-03-23T06:53:58;11.10;99.90
2893;DHT22;1456;51.840;12.184;2023-03-23T06:56:24;11.10;99.90
2893;DHT22;1456;51.840;12.184;2023-03-23T06:58:49;11.10;99.90
2893;DHT22;1456;51.840;12.184;2023-03-23T07:01:15;11.10;99.90
2893;DHT22;1456;51.840;12.184;2023-03-23T07:03:41;11.10;99.90
2893;DHT22;1456;51.840;12.184;2023-03-23T07:06:08;11.30;99.90
2893;DHT22;1456;51.840;12.184;2023-03-23T07:08:33;11.40;99.90
2893;DHT22;1456;51.840;12.184;2023-03-23T07:11:00;11.50;99.90
2893;DHT22;1456;51.840;12.184;2023-03-23T07:13:26;11.60;99.90
2893;DHT22;1456;51.840;12.184;2023-03-23T07:15:52;11.70;99.90
2893;DHT22;1456;51.840;12.184;2023-03-23T07:18:19;11.70;99.90
2893;DHT22;1456;51.840;12.184;2023-03-23T07:20:48;11.60;99.90
2893;DHT22;1456;51.840;12.184;2023-03-23T07:23:14;11.50;99.90
2893;DHT22;1456;51.840;12.184;2023-03-23T07:25:40;11.40;99.90
2893;DHT22;1456;51.840;12.184;2023-03-23T07:28:05;11.40;99.90
2893;DHT22;1456;51.840;12.184;2023-03-23T07:30:31;11.40;99.90
2893;DHT22;1456;51.840;12.184;2023-03-23T07:32:59;11.40;99.90
2893;DHT22;1456;51.840;12.184;2023-03-23T07:35:33;11.40;99.90
2893;DHT22;1456;51.840;12.184;2023-03-23T07:37:59;11.40;99.90
2893;DHT22;1456;51.840;12.184;2023-03-23T07:40:25;11.50;99.90
2893;DHT22;1456;51.840;12.184;2023-03-23T07:42:52;11.50;99.90
2893;DHT22;1456;51.840;12.184;2023-03-23T07:45:18;11.50;99.90
2893;DHT22;1456;51.840;12.184;2023-03-23T07:47:44;11.40;99.90
2893;DHT22;1456;51.840;12.184;2023-03-23T07:50:12;11.40;99.90
2893;DHT22;1456;51.840;12.184;2023-03-23T07:52:37;11.30;99.90
2893;DHT22;1456;51.840;12.184;2023-03-23T07:55:04;11.30;99.90
2893;DHT22;1456;51.840;12.184;2023-03-23T07:57:30;11.40;99.90
2893;DHT22;1456;51.840;12.184;2023-03-23T07:59:56;11.30;99.90
2893;DHT22;1456;51.840;12.184;2023-03-23T08:02:22;11.60;99.90
2893;DHT22;1456;51.840;12.184;2023-03-23T08:04:47;11.70;99.90
2893;DHT22;1456;51.840;12.184;2023-03-23T08:07:14;11.90;99.90
2893;DHT22;1456;51.840;12.184;2023-03-23T08:09:42;12.00;99.90
2893;DHT22;1456;51.840;12.184;2023-03-23T08:12:07;12.10;99.90
2893;DHT22;1456;51.840;12.184;2023-03-23T08:14:33;12.20;99.90
2893;DHT22;1456;51.840;12.184;2023-03-23T08:16:58;12.20;99.90
2893;DHT22;1456;51.840;12.184;2023-03-23T08:19:24;12.40;99.90
2893;DHT22;1456;51.840;12.184;2023-03-23T08:21:49;12.50;99.90
2893;DHT22;1456;51.840;12.184;2023-03-23T08:24:16;12.70;99.90
2893;DHT22;1456;51.840;12.184;2023-03-23T08:26:43;12.90;99.90
2893;DHT22;1456;51.840;12.184;2023-03-23T08:29:09;13.10;99.90
2893;DHT22;1456;51.840;12.184;2023-03-23T08:31:35;13.30;99.90
2893;DHT22;1456;51.840;12.184;2023-03-23T08:34:04;13.50;99.90
2893;DHT22;1456;51.840;12.184;2023-03-23T08:36:32;13.70;99.90
2893;DHT22;1456;51.840;12.184;2023-03-23T08:41:31;13.90;99.90
2893;DHT22;1456;51.840;12.184;2023-03-23T08:43:58;14.00;99.90
2893;DHT22;1456;51.840;12.184;2023-03-23T08:46:25;14.00;99.90
2893;DHT22;1456;51.840;12.184;2023-03-23T08:48:53;14.10;99.90
2893;DHT22;1456;51.840;12.184;2023-03-23T08:51:20;14.20;99.90
2893;DHT22;1456;51.840;12.184;2023-03-23T08:53:48;14.20;99.90
2893;DHT22;1456;51.840;12.184;2023-03-23T08:56:13;14.20;99.90
2893;DHT22;1456;51.840;12.184;2023-03-23T08:58:39;14.20;99.90
2893;DHT22;1456;51.840;12.184;2023-03-23T09:01:06;14.20;99.90
2893;DHT22;1456;51.840;12.184;2023-03-23T09:03:33;14.20;99.90
2893;DHT22;1456;51.840;12.184;2023-03-23T09:06:00;14.20;99.90
2893;DHT22;1456;51.840;12.184;2023-03-23T09:08:27;14.30;99.90
2893;DHT22;1456;51.840;12.184;2023-03-23T09:10:58;14.30;99.90
2893;DHT22;1456;51.840;12.184;2023-03-23T09:13:23;14.10;99.90
2893;DHT22;1456;51.840;12.184;2023-03-23T09:15:49;14.00;99.90
2893;DHT22;1456;51.840;12.184;2023-03-23T09:18:16;13.90;99.90
2893;DHT22;1456;51.840;12.184;2023-03-23T09:20:42;13.70;99.90
2893;DHT22;1456;51.840;12.184;2023-03-23T09:23:08;13.70;99.90
2893;DHT22;1456;51.840;12.184;2023-03-23T09:25:34;13.70;99.90
2893;DHT22;1456;51.840;12.184;2023-03-23T09:28:01;13.80;99.90
2893;DHT22;1456;51.840;12.184;2023-03-23T09:30:29;13.80;99.90
2893;DHT22;1456;51.840;12.184;2023-03-23T09:32:56;13.90;99.90
2893;DHT22;1456;51.840;12.184;2023-03-23T09:35:22;13.90;99.90
2893;DHT22;1456;51.840;12.184;2023-03-23T09:37:50;14.10;99.90
2893;DHT22;1456;51.840;12.184;2023-03-23T09:40:19;14.20;99.90
2893;DHT22;1456;51.840;12.184;2023-03-23T09:50:41;14.60;99.90
2893;DHT22;1456;51.840;12.184;2023-03-23T09:53:16;14.60;99.90
2893;DHT22;1456;51.840;12.184;2023-03-23T09:55:44;14.60;99.90
2893;DHT22;1456;51.840;12.184;2023-03-23T10:00:46;14.60;99.90
2893;DHT22;1456;51.840;12.184;2023-03-23T10:03:19;14.50;99.90
2893;DHT22;1456;51.840;12.184;2023-03-23T10:05:51;14.50;99.90
2893;DHT22;1456;51.840;12.184;2023-03-23T10:08:19;14.50;99.90
2893;DHT22;1456;51.840;12.184;2023-03-23T10:15:42;14.60;99.90
2893;DHT22;1456;51.840;12.184;2023-03-23T10:18:27;14.50;99.90
2893;DHT22;1456;51.840;12.184;2023-03-23T10:23:37;14.50;99.90
2893;DHT22;1456;51.840;12.184;2023-03-23T10:28:41;14.70;99.90
2893;DHT22;1456;51.840;12.184;2023-03-23T10:31:18;14.70;99.90
2893;DHT22;1456;51.840;12.184;2023-03-23T10:33:47;14.80;99.90
2893;DHT22;1456;51.840;12.184;2023-03-23T10:36:33;14.90;99.90
2893;DHT22;1456;51.840;12.184;2023-03-23T10:39:01;15.00;99.90
2893;DHT22;1456;51.840;12.184;2023-03-23T10:41:29;15.30;99.90
2893;DHT22;1456;51.840;12.184;2023-03-23T10:43:57;15.40;99.90
2893;DHT22;1456;51.840;12.184;2023-03-23T10:48:54;15.60;99.90
2893;DHT22;1456;51.840;12.184;2023-03-23T10:51:23;15.70;99.90
2893;DHT22;1456;51.840;12.184;2023-03-23T10:53:58;15.90;99.90
2893;DHT22;1456;51.840;12.184;2023-03-23T10:56:29;15.90;99.90
2893;DHT22;1456;51.840;12.184;2023-03-23T10:58:59;16.10;99.90
2893;DHT22;1456;51.840;12.184;2023-03-23T11:01:32;16.40;99.90
2893;DHT22;1456;51.840;12.184;2023-03-23T11:03:58;16.50;99.90
2893;DHT22;1456;51.840;12.184;2023-03-23T11:06:29;16.80;99.90
2893;DHT22;1456;51.840;12.184;2023-03-23T11:09:15;17.00;99.90
2893;DHT22;1456;51.840;12.184;2023-03-23T11:11:43;16.80;99.90
2893;DHT22;1456;51.840;12.184;2023-03-23T11:16:55;16.30;99.90
2893;DHT22;1456;51.840;12.184;2023-03-23T11:19:25;16.30;99.90
2893;DHT22;1456;51.840;12.184;2023-03-23T11:21:52;16.40;99.90
2893;DHT22;1456;51.840;12.184;2023-03-23T11:24:21;16.40;99.90
2893;DHT22;1456;51.840;12.184;2023-03-23T11:26:46;16.20;99.90
2893;DHT22;1456;51.840;12.184;2023-03-23T11:29:20;16.20;99.90
2893;DHT22;1456;51.840;12.184;2023-03-23T11:32:21;16.10;99.90
2893;DHT22;1456;51.840;12.184;2023-03-23T11:34:41;16.10;99.90
2893;DHT22;1456;51.840;12.184;2023-03-23T11:37:09;16.00;99.90
2893;DHT22;1456;51.840;12.184;2023-03-23T11:39:46;16.00;99.90
2893;DHT22;1456;51.840;12.184;2023-03-23T11:42:13;16.10;99.90
2893;DHT22;1456;51.840;12.184;2023-03-23T11:44:43;16.10;99.90
2893;DHT22;1456;51.840;12.184;2023-03-23T11:47:22;16.10;99.90
2893;DHT22;1456;51.840;12.184;2023-03-23T11:50:10;16.20;99.90
2893;DHT22;1456;51.840;12.184;2023-03-23T11:55:19;16.30;99.90
2893;DHT22;1456;51.840;12.184;2023-03-23T11:57:46;16.40;99.90
2893;DHT22;1456;51.840;12.184;2023-03-23T12:00:13;16.50;99.90
2893;DHT22;1456;51.840;12.184;2023-03-23T12:02:46;16.60;99.90
2893;DHT22;1456;51.840;12.184;2023-03-23T12:07:50;17.30;99.90
2893;DHT22;1456;51.840;12.184;2023-03-23T12:13:04;17.40;99.30
2893;DHT22;1456;51.840;12.184;2023-03-23T12:28:44;17.50;98.60
2893;DHT22;1456;51.840;12.184;2023-03-23T12:36:19;17.40;99.10
2893;DHT22;1456;51.840;12.184;2023-03-23T12:44:18;17.80;98.20
2893;DHT22;1456;51.840;12.184;2023-03-23T12:46:54;18.00;97.80
2893;DHT22;1456;51.840;12.184;2023-03-23T12:49:32;18.10;97.80
2893;DHT22;1456;51.840;12.184;2023-03-23T12:57:21;18.40;97.20
2893;DHT22;1456;51.840;12.184;2023-03-23T13:02:32;17.60;97.30
2893;DHT22;1456;51.840;12.184;2023-03-23T13:05:04;17.20;97.60
2893;DHT22;1456;51.840;12.184;2023-03-23T13:07:35;16.90;98.00
2893;DHT22;1456;51.840;12.184;2023-03-23T13:12:31;16.80;98.40
2893;DHT22;1456;51.840;12.184;2023-03-23T13:17:44;17.30;98.10
2893;DHT22;1456;51.840;12.184;2023-03-23T13:27:59;18.90;95.50
2893;DHT22;1456;51.840;12.184;2023-03-23T13:30:25;18.60;95.50
2893;DHT22;1456;51.840;12.184;2023-03-23T13:33:04;18.00;95.90
2893;DHT22;1456;51.840;12.184;2023-03-23T13:35:37;17.40;96.50
2893;DHT22;1456;51.840;12.184;2023-03-23T13:38:15;16.90;97.30
2893;DHT22;1456;51.840;12.184;2023-03-23T13:40:43;16.70;97.30
2893;DHT22;1456;51.840;12.184;2023-03-23T13:43:10;16.50;97.30
2893;DHT22;1456;51.840;12.184;2023-03-23T13:45:42;16.50;97.50
2893;DHT22;1456;51.840;12.184;2023-03-23T13:50:50;17.00;97.70
2893;DHT22;1456;51.840;12.184;2023-03-23T13:56:13;21.10;94.70
2893;DHT22;1456;51.840;12.184;2023-03-23T13:58:46;22.90;91.40
2893;DHT22;1456;51.840;12.184;2023-03-23T14:01:14;23.10;91.40
2893;DHT22;1456;51.840;12.184;2023-03-23T14:03:45;24.40;90.90
2893;DHT22;1456;51.840;12.184;2023-03-23T14:06:19;25.50;84.90
2893;DHT22;1456;51.840;12.184;2023-03-23T14:08:49;24.70;83.60
2893;DHT22;1456;51.840;12.184;2023-03-23T14:11:19;24.70;83.90
2893;DHT22;1456;51.840;12.184;2023-03-23T14:14:04;24.70;83.40
2893;DHT22;1456;51.840;12.184;2023-03-23T14:16:42;25.30;81.90
2893;DHT22;1456;51.840;12.184;2023-03-23T14:22:00;25.90;79.30
2893;DHT22;1456;51.840;12.184;2023-03-23T14:24:27;24.40;82.50
2893;DHT22;1456;51.840;12.184;2023-03-23T14:27:01;23.30;82.20
2893;DHT22;1456;51.840;12.184;2023-03-23T14:29:27;22.20;83.10
2893;DHT22;1456;51.840;12.184;2023-03-23T14:31:57;21.90;85.20
2893;DHT22;1456;51.840;12.184;2023-03-23T14:34:28;23.10;84.30
2893;DHT22;1456;51.840;12.184;2023-03-23T14:36:55;22.90;81.80
2893;DHT22;1456;51.840;12.184;2023-03-23T14:39:25;21.70;84.60
2893;DHT22;1456;51.840;12.184;2023-03-23T14:41:52;20.90;86.30
2893;DHT22;1456;51.840;12.184;2023-03-23T14:44:25;19.90;85.60
2893;DHT22;1456;51.840;12.184;2023-03-23T14:46:52;19.20;89.00
2893;DHT22;1456;51.840;12.184;2023-03-23T14:49:21;18.80;90.60
2893;DHT22;1456;51.840;12.184;2023-03-23T14:51:53;18.60;90.80
2893;DHT22;1456;51.840;12.184;2023-03-23T14:54:24;18.30;91.00
2893;DHT22;1456;51.840;12.184;2023-03-23T14:56:50;17.90;92.00
2893;DHT22;1456;51.840;12.184;2023-03-23T14:59:16;17.90;92.40
2893;DHT22;1456;51.840;12.184;2023-03-23T15:01:41;17.70;92.20
2893;DHT22;1456;51.840;12.184;2023-03-23T15:04:16;17.60;92.40
2893;DHT22;1456;51.840;12.184;2023-03-23T15:06:45;17.50;92.40
2893;DHT22;1456;51.840;12.184;2023-03-23T15:09:13;18.00;93.20
2893;DHT22;1456;51.840;12.184;2023-03-23T15:11:39;18.90;92.10
2893;DHT22;1456;51.840;12.184;2023-03-23T15:14:15;19.10;91.30
2893;DHT22;1456;51.840;12.184;2023-03-23T15:16:45;19.60;90.80
2893;DHT22;1456;51.840;12.184;2023-03-23T15:19:13;20.00;90.10
2893;DHT22;1456;51.840;12.184;2023-03-23T15:21:48;19.50;90.20
2893;DHT22;1456;51.840;12.184;2023-03-23T15:24:19;18.70;90.50
2893;DHT22;1456;51.840;12.184;2023-03-23T15:26:45;18.00;91.50
2893;DHT22;1456;51.840;12.184;2023-03-23T15:29:16;17.50;92.10
2893;DHT22;1456;51.840;12.184;2023-03-23T15:31:43;17.20;92.50
2893;DHT22;1456;51.840;12.184;2023-03-23T15:34:19;16.90;92.90
2893;DHT22;1456;51.840;12.184;2023-03-23T15:36:45;16.80;93.30
2893;DHT22;1456;51.840;12.184;2023-03-23T15:39:11;16.70;93.60
2893;DHT22;1456;51.840;12.184;2023-03-23T15:41:45;16.60;93.90
2893;DHT22;1456;51.840;12.184;2023-03-23T15:44:11;16.60;93.90
2893;DHT22;1456;51.840;12.184;2023-03-23T15:46:48;16.60;94.10
2893;DHT22;1456;51.840;12.184;2023-03-23T15:49:14;16.50;94.30
2893;DHT22;1456;51.840;12.184;2023-03-23T15:51:41;16.40;94.20
2893;DHT22;1456;51.840;12.184;2023-03-23T15:54:08;16.40;94.80
2893;DHT22;1456;51.840;12.184;2023-03-23T15:56:34;16.40;94.60
2893;DHT22;1456;51.840;12.184;2023-03-23T15:59:00;16.20;94.90
2893;DHT22;1456;51.840;12.184;2023-03-23T16:01:26;16.20;95.00
2893;DHT22;1456;51.840;12.184;2023-03-23T16:06:19;16.10;95.30
2893;DHT22;1456;51.840;12.184;2023-03-23T16:08:46;16.10;95.70
2893;DHT22;1456;51.840;12.184;2023-03-23T16:11:15;16.10;95.70
2893;DHT22;1456;51.840;12.184;2023-03-23T16:13:42;16.30;95.70
2893;DHT22;1456;51.840;12.184;2023-03-23T16:16:13;16.30;95.80
2893;DHT22;1456;51.840;12.184;2023-03-23T16:18:39;16.20;96.00
2893;DHT22;1456;51.840;12.184;2023-03-23T16:21:05;16.10;96.20
2893;DHT22;1456;51.840;12.184;2023-03-23T16:23:31;16.00;95.80
2893;DHT22;1456;51.840;12.184;2023-03-23T16:25:57;16.10;96.20
2893;DHT22;1456;51.840;12.184;2023-03-23T16:28:23;16.10;96.00
2893;DHT22;1456;51.840;12.184;2023-03-23T16:30:50;16.00;96.10
2893;DHT22;1456;51.840;12.184;2023-03-23T16:33:15;15.90;96.30
2893;DHT22;1456;51.840;12.184;2023-03-23T16:35:42;15.80;96.70
2893;DHT22;1456;51.840;12.184;2023-03-23T16:38:11;15.80;97.10
2893;DHT22;1456;51.840;12.184;2023-03-23T16:40:39;15.70;97.20
2893;DHT22;1456;51.840;12.184;2023-03-23T16:43:05;15.60;97.40
2893;DHT22;1456;51.840;12.184;2023-03-23T16:45:31;15.50;97.80
2893;DHT22;1456;51.840;12.184;2023-03-23T16:47:57;15.50;98.00
2893;DHT22;1456;51.840;12.184;2023-03-23T16:50:26;15.40;98.10
2893;DHT22;1456;51.840;12.184;2023-03-23T16:52:58;15.40;98.40
2893;DHT22;1456;51.840;12.184;2023-03-23T16:55:25;15.30;98.50
2893;DHT22;1456;51.840;12.184;2023-03-23T16:57:51;15.30;98.60
2893;DHT22;1456;51.840;12.184;2023-03-23T17:00:18;15.20;98.80
2893;DHT22;1456;51.840;12.184;2023-03-23T17:02:44;15.20;98.90
2893;DHT22;1456;51.840;12.184;2023-03-23T17:05:13;15.10;98.90
2893;DHT22;1456;51.840;12.184;2023-03-23T17:07:40;15.10;99.10
2893;DHT22;1456;51.840;12.184;2023-03-23T17:10:06;15.00;99.20
2893;DHT22;1456;51.840;12.184;2023-03-23T17:12:33;15.00;99.10
2893;DHT22;1456;51.840;12.184;2023-03-23T17:14:59;15.00;99.20
2893;DHT22;1456;51.840;12.184;2023-03-23T17:17:25;15.00;99.30
2893;DHT22;1456;51.840;12.184;2023-03-23T17:19:50;14.90;99.30
2893;DHT22;1456;51.840;12.184;2023-03-23T17:22:16;14.90;99.40
2893;DHT22;1456;51.840;12.184;2023-03-23T17:24:41;14.90;99.50
2893;DHT22;1456;51.840;12.184;2023-03-23T17:27:07;14.90;99.50
2893;DHT22;1456;51.840;12.184;2023-03-23T17:29:34;14.90;99.50
2893;DHT22;1456;51.840;12.184;2023-03-23T17:32:00;14.90;99.50
2893;DHT22;1456;51.840;12.184;2023-03-23T17:34:26;14.80;99.60
2893;DHT22;1456;51.840;12.184;2023-03-23T17:36:52;14.80;99.60
2893;DHT22;1456;51.840;12.184;2023-03-23T17:39:19;14.80;99.60
2893;DHT22;1456;51.840;12.184;2023-03-23T17:41:44;14.80;99.80
2893;DHT22;1456;51.840;12.184;2023-03-23T17:44:12;14.80;99.70
2893;DHT22;1456;51.840;12.184;2023-03-23T17:46:38;14.70;99.70
2893;DHT22;1456;51.840;12.184;2023-03-23T17:49:04;14.70;99.80
2893;DHT22;1456;51.840;12.184;2023-03-23T17:51:29;14.70;99.80